| time (UTC) | temp F | wind direction | speed MPH | gust MPH | rain 1hr in | rain 24hr in | rain mn in | humidity % | barometer mb |
| 20260509190053 | 70 | 328 | 2.0 | 10.0 | 0.00 | 0.00 | 0.00 | 37 | 1020.1 |
| 20260509184555 | 69 | 319 | 3.0 | 7.0 | 0.00 | 0.00 | 0.00 | 38 | 1020.1 |
| 20260509183051 | 69 | 356 | 2.0 | 11.0 | 0.00 | 0.00 | 0.00 | 38 | 1020.1 |
| 20260509181557 | 68 | 316 | 1.0 | 7.0 | 0.00 | 0.00 | 0.00 | 40 | 1020.2 |
| 20260509180047 | 66 | 263 | 2.0 | 5.0 | 0.00 | 0.00 | 0.00 | 43 | 1020.5 |
| 20260509174543 | 65 | 224 | 1.0 | 5.0 | 0.00 | 0.00 | 0.00 | 45 | 1020.5 |
| 20260509173046 | 66 | 252 | 2.0 | 5.0 | 0.00 | 0.00 | 0.00 | 44 | 1020.5 |
| 20260509171540 | 65 | 13 | 1.0 | 3.0 | 0.00 | 0.00 | 0.00 | 46 | 1020.7 |
| 20260509170046 | 64 | 263 | 1.0 | 4.0 | 0.00 | 0.00 | 0.00 | 46 | 1020.8 |
| 20260509164541 | 63 | 215 | 1.0 | 3.0 | 0.00 | 0.00 | 0.00 | 47 | 1021.0 |
| 20260509163034 | 64 | 214 | 0.0 | 3.0 | 0.00 | 0.00 | 0.00 | 50 | 1021.0 |
| 20260509161534 | 63 | 74 | 0.0 | 3.0 | 0.00 | 0.00 | 0.00 | 51 | 1020.9 |
| 20260509160032 | 61 | 108 | 0.0 | 3.0 | 0.00 | 0.00 | 0.00 | 55 | 1020.8 |
| 20260509154524 | 60 | 109 | 0.0 | 2.0 | 0.00 | 0.00 | 0.00 | 55 | 1020.9 |
| 20260509153025 | 59 | 108 | 0.0 | 2.0 | 0.00 | 0.00 | 0.00 | 58 | 1021.0 |
| 20260509151518 | 57 | 90 | 1.0 | 2.0 | 0.00 | 0.00 | 0.00 | 58 | 1021.2 |
| 20260509150015 | 55 | 58 | 0.0 | 2.0 | 0.00 | 0.00 | 0.00 | 62 | 1021.3 |
| 20260509144514 | 53 | 58 | 0.0 | 1.0 | 0.00 | 0.00 | 0.00 | 66 | 1021.3 |
| 20260509143014 | 50 | 58 | 0.0 | 2.0 | 0.00 | 0.00 | 0.00 | 69 | 1021.4 |
| 20260509141513 | 48 | 123 | 0.0 | 2.0 | 0.00 | 0.00 | 0.00 | 72 | 1021.3 |
| 20260509140012 | 46 | 68 | 0.0 | 1.0 | 0.00 | 0.00 | 0.00 | 75 | 1021.2 |
| 20260509134511 | 43 | 68 | 0.0 | 0.0 | 0.00 | 0.00 | 0.00 | 79 | 1021.1 |
| 20260509133009 | 42 | 68 | 0.0 | 4.0 | 0.00 | 0.00 | 0.00 | 79 | 1021.0 |
| 20260509131507 | 43 | 98 | 0.0 | 1.0 | 0.00 | 0.00 | 0.00 | 78 | 1020.7 |
| 20260509130006 | 42 | 114 | 0.0 | 2.0 | 0.00 | 0.00 | 0.00 | 80 | 1020.7 |
| 20260509124506 | 42 | 114 | 0.0 | 3.0 | 0.00 | 0.00 | 0.00 | 81 | 1020.4 |
| 20260509123001 | 43 | 58 | 2.0 | 4.0 | 0.00 | 0.00 | 0.00 | 77 | 1020.5 |
| 20260509121612 | 43 | 89 | 0.0 | 3.0 | 0.00 | 0.00 | 0.00 | 79 | 1020.4 |
| 20260509120113 | 43 | 89 | 0.0 | 4.0 | 0.00 | 0.00 | 0.00 | 79 | 1020.5 |
| 20260509114558 | 43 | 109 | 1.0 | 4.0 | 0.00 | 0.00 | 0.00 | 77 | 1020.5 |
| 20260509113056 | 45 | 113 | 0.0 | 3.0 | 0.00 | 0.00 | 0.00 | 75 | 1020.4 |
| 20260509111552 | 45 | 87 | 0.0 | 2.0 | 0.00 | 0.00 | 0.00 | 74 | 1020.4 |
| 20260509110053 | 46 | 88 | 0.0 | 3.0 | 0.00 | 0.00 | 0.00 | 74 | 1020.4 |
| 20260509104544 | 47 | 112 | 0.0 | 1.0 | 0.00 | 0.00 | 0.00 | 73 | 1020.3 |
| 20260509103042 | 47 | 111 | 0.0 | 2.0 | 0.00 | 0.00 | 0.00 | 72 | 1020.3 |
| 20260509101549 | 48 | 111 | 0.0 | 2.0 | 0.00 | 0.00 | 0.00 | 70 | 1020.1 |
| 20260509100042 | 49 | 84 | 1.0 | 4.0 | 0.00 | 0.00 | 0.00 | 69 | 1019.9 |
| 20260509094534 | 49 | 85 | 0.0 | 4.0 | 0.00 | 0.00 | 0.00 | 70 | 1019.8 |
| 20260509093031 | 49 | 71 | 0.0 | 3.0 | 0.00 | 0.00 | 0.00 | 69 | 1019.8 |
| 20260509091533 | 51 | 104 | 0.0 | 0.0 | 0.00 | 0.00 | 0.00 | 66 | 1019.8 |
| 20260509090023 | 53 | 104 | 0.0 | 3.0 | 0.00 | 0.00 | 0.00 | 62 | 1019.7 |
| 20260509084526 | 54 | 150 | 1.0 | 5.0 | 0.00 | 0.00 | 0.00 | 61 | 1019.6 |
| 20260509083019 | 55 | 193 | 1.0 | 9.0 | 0.00 | 0.00 | 0.00 | 60 | 1019.6 |
| 20260509081519 | 55 | 112 | 2.0 | 8.0 | 0.00 | 0.00 | 0.00 | 58 | 1019.6 |
| 20260509080017 | 55 | 109 | 1.0 | 7.0 | 0.00 | 0.00 | 0.00 | 60 | 1019.6 |
| 20260509074516 | 55 | 107 | 3.0 | 6.0 | 0.00 | 0.00 | 0.00 | 60 | 1019.7 |
| 20260509073023 | 55 | 146 | 1.0 | 6.0 | 0.00 | 0.00 | 0.00 | 60 | 1019.6 |
| 20260509071512 | 55 | 145 | 0.0 | 5.0 | 0.00 | 0.00 | 0.00 | 58 | 1019.5 |
| 20260509070008 | 55 | 187 | 1.0 | 5.0 | 0.00 | 0.00 | 0.00 | 59 | 1019.2 |
| 20260509064508 | 55 | 142 | 2.0 | 9.0 | 0.00 | 0.00 | 0.00 | 58 | 1019.3 |
| 20260509063012 | 55 | 139 | 0.0 | 6.0 | 0.00 | 0.00 | 0.00 | 59 | 1019.6 |
| 20260509061506 | 55 | 114 | 2.0 | 4.0 | 0.00 | 0.00 | 0.00 | 58 | 1019.7 |
| 20260509060006 | 55 | 67 | 0.0 | 1.0 | 0.00 | 0.00 | 0.00 | 57 | 1019.8 |
| 20260509054504 | 56 | 67 | 1.0 | 3.0 | 0.00 | 0.00 | 0.00 | 55 | 1019.6 |
| 20260509053002 | 57 | 186 | 0.0 | 7.0 | 0.00 | 0.00 | 0.00 | 54 | 1019.3 |
| 20260509051600 | 58 | 149 | 0.0 | 7.0 | 0.00 | 0.00 | 0.00 | 52 | 1019.2 |
| 20260509050059 | 58 | 143 | 1.0 | 7.0 | 0.00 | 0.00 | 0.00 | 52 | 1019.1 |
| 20260509044557 | 59 | 124 | 2.0 | 6.0 | 0.00 | 0.00 | 0.00 | 50 | 1019.0 |
| 20260509043054 | 60 | 146 | 1.0 | 6.0 | 0.00 | 0.00 | 0.00 | 48 | 1018.7 |
| 20260509041555 | 61 | 163 | 1.0 | 5.0 | 0.00 | 0.00 | 0.00 | 47 | 1018.4 |
| 20260509040119 | 62 | 124 | 3.0 | 10.0 | 0.00 | 0.00 | 0.00 | 45 | 1018.0 |
| 20260509034555 | 62 | 108 | 2.0 | 4.0 | 0.00 | 0.00 | 0.00 | 44 | 1017.8 |
| 20260509033047 | 63 | 158 | 1.0 | 5.0 | 0.00 | 0.00 | 0.00 | 42 | 1017.6 |
| 20260509031544 | 65 | 135 | 0.0 | 5.0 | 0.00 | 0.00 | 0.00 | 40 | 1017.1 |
| 20260509030046 | 67 | 118 | 4.0 | 10.0 | 0.00 | 0.00 | 0.00 | 37 | 1016.8 |
| 20260509024539 | 68 | 160 | 3.0 | 10.0 | 0.00 | 0.00 | 0.00 | 35 | 1016.5 |
| 20260509023037 | 69 | 118 | 7.0 | 12.0 | 0.00 | 0.00 | 0.00 | 33 | 1016.3 |
| 20260509021538 | 70 | 98 | 7.0 | 14.0 | 0.00 | 0.00 | 0.00 | 32 | 1016.2 |
| 20260509020039 | 71 | 115 | 4.0 | 14.0 | 0.00 | 0.00 | 0.00 | 30 | 1016.1 |
| 20260509014532 | 72 | 136 | 4.0 | 11.0 | 0.00 | 0.00 | 0.00 | 28 | 1015.7 |
| 20260509013032 | 73 | 109 | 4.0 | 11.0 | 0.00 | 0.00 | 0.00 | 26 | 1015.5 |
| 20260509011529 | 73 | 139 | 5.0 | 10.0 | 0.00 | 0.00 | 0.00 | 26 | 1015.4 |
| 20260509010035 | 74 | 98 | 5.0 | 12.0 | 0.00 | 0.00 | 0.00 | 25 | 1015.2 |
| 20260509004527 | 74 | 114 | 6.0 | 17.0 | 0.00 | 0.00 | 0.00 | 25 | 1015.1 |
| 20260509003025 | 74 | 98 | 7.0 | 14.0 | 0.00 | 0.00 | 0.00 | 23 | 1015.0 |
| 20260509001524 | 74 | 77 | 5.0 | 15.0 | 0.00 | 0.00 | 0.00 | 24 | 1015.0 |
| 20260509000023 | 75 | 117 | 9.0 | 15.0 | 0.00 | 0.00 | 0.00 | 23 | 1015.0 |
| 20260508234522 | 75 | 118 | 7.0 | 16.0 | 0.00 | 0.00 | 0.00 | 24 | 1015.0 |
| 20260508233022 | 75 | 96 | 6.0 | 13.0 | 0.00 | 0.00 | 0.00 | 24 | 1014.9 |
| 20260508231521 | 76 | 68 | 5.0 | 10.0 | 0.00 | 0.00 | 0.00 | 23 | 1014.9 |
| 20260508230023 | 75 | 72 | 8.0 | 14.0 | 0.00 | 0.00 | 0.00 | 21 | 1014.9 |
| 20260508224518 | 75 | 61 | 7.0 | 16.0 | 0.00 | 0.00 | 0.00 | 22 | 1014.8 |
| 20260508223033 | 75 | 135 | 9.0 | 19.0 | 0.00 | 0.00 | 0.00 | 21 | 1015.0 |
| 20260508221516 | 75 | 77 | 6.0 | 15.0 | 0.00 | 0.00 | 0.00 | 21 | 1014.9 |
| 20260508220020 | 75 | 126 | 8.0 | 14.0 | 0.00 | 0.00 | 0.00 | 19 | 1014.8 |
| 20260508214513 | 74 | 114 | 8.0 | 17.0 | 0.00 | 0.00 | 0.00 | 19 | 1014.9 |
| 20260508213015 | 74 | 102 | 7.0 | 14.0 | 0.00 | 0.00 | 0.00 | 20 | 1014.9 |
| 20260508211511 | 73 | 113 | 8.0 | 16.0 | 0.00 | 0.00 | 0.00 | 22 | 1014.9 |
| 20260508210012 | 72 | 105 | 9.0 | 18.0 | 0.00 | 0.00 | 0.00 | 20 | 1014.8 |
| 20260508204519 | 73 | 103 | 9.0 | 20.0 | 0.00 | 0.00 | 0.00 | 21 | 1014.6 |
| 20260508203008 | 73 | 86 | 10.0 | 23.0 | 0.00 | 0.00 | 0.00 | 21 | 1014.5 |
| 20260508201506 | 74 | 155 | 6.0 | 15.0 | 0.00 | 0.00 | 0.00 | 20 | 1014.3 |
| 20260508200005 | 73 | 38 | 9.0 | 19.0 | 0.00 | 0.00 | 0.00 | 18 | 1014.3 |
| 20260508194502 | 72 | 119 | 9.0 | 20.0 | 0.00 | 0.00 | 0.00 | 16 | 1014.7 |
| 20260508193112 | 73 | 87 | 6.0 | 14.0 | 0.00 | 0.00 | 0.00 | 16 | 1014.7 |
| 20260508191602 | 72 | 116 | 1.0 | 5.0 | 0.00 | 0.00 | 0.00 | 23 | 1014.7 |